createdAt,value
2018-04-13T00:01:04.494Z,90.95
2018-04-13T00:02:14.210Z,91
2018-04-13T00:03:24.190Z,90.9
2018-04-13T00:04:34.155Z,90.81
2018-04-13T00:05:44.133Z,90.71
2018-04-13T00:06:53.581Z,91.09
2018-04-13T00:08:03.551Z,91.19
2018-04-13T00:09:13.268Z,90.71
2018-04-13T00:10:22.729Z,90.23
2018-04-13T00:11:32.708Z,90.33
2018-04-13T00:12:42.686Z,90.52
2018-04-13T00:13:52.707Z,90.42
2018-04-13T00:15:02.420Z,90.33
2018-04-13T00:16:12.395Z,90.71
2018-04-13T00:17:21.838Z,90.52
2018-04-13T00:18:31.816Z,90.61
2018-04-13T00:19:41.794Z,90.61
2018-04-13T00:20:51.777Z,90.57
2018-04-13T00:22:01.750Z,91.09
2018-04-13T00:23:11.733Z,90.81
2018-04-13T00:24:21.698Z,91.09
2018-04-13T00:25:31.406Z,90.71
2018-04-13T00:26:41.130Z,90.67
2018-04-13T00:27:51.101Z,90.76
2018-04-13T00:29:01.083Z,91.14
2018-04-13T00:30:10.814Z,90.95
2018-04-13T00:31:20.788Z,90.86
2018-04-13T00:32:30.755Z,90.76
2018-04-13T00:33:40.727Z,90.86
2018-04-13T00:34:50.700Z,91.05
2018-04-13T00:36:00.663Z,90.86
2018-04-13T00:37:10.858Z,91.24
2018-04-13T00:38:20.844Z,90.95
2018-04-13T00:39:30.819Z,90.86
2018-04-13T00:40:40.271Z,90.57
2018-04-13T00:41:50.306Z,90.76
2018-04-13T00:43:00.279Z,90.86
2018-04-13T00:44:09.991Z,90.76
2018-04-13T00:45:19.972Z,91.05
2018-04-13T00:46:29.944Z,91.14
2018-04-13T00:47:39.926Z,91.72
2018-04-13T00:48:49.630Z,91.34
2018-04-13T00:49:59.088Z,91.63
2018-04-13T00:51:09.076Z,91.91
2018-04-13T00:52:18.534Z,91.63
2018-04-13T00:53:28.502Z,91.72
2018-04-13T00:54:38.206Z,91.91
2018-04-13T00:55:48.170Z,91.43
2018-04-13T00:56:57.872Z,91.72
2018-04-13T00:58:07.849Z,91.72
2018-04-13T00:59:17.543Z,92.01
2018-04-13T01:00:27.262Z,92.1
2018-04-13T01:01:37.242Z,91.82
2018-04-13T01:02:47.225Z,91.91
2018-04-13T01:03:57.190Z,91.72
2018-04-13T01:05:06.909Z,91.53
2018-04-13T01:06:16.881Z,91.63
2018-04-13T01:07:26.597Z,92.1
2018-04-13T01:08:36.565Z,91.82
2018-04-13T01:09:46.599Z,91.82
2018-04-13T01:10:56.573Z,91.91
2018-04-13T01:12:06.065Z,92.1
2018-04-13T01:13:15.772Z,91.72
2018-04-13T01:14:25.483Z,91.82
2018-04-13T01:15:35.473Z,92.1
2018-04-13T01:16:45.443Z,92.01
2018-04-13T01:17:55.403Z,92.1
2018-04-13T01:19:05.364Z,92.01
2018-04-13T01:20:15.338Z,92.39
2018-04-13T01:21:25.300Z,92.1
2018-04-13T01:22:35.282Z,92.39
2018-04-13T01:23:45.247Z,92.77
2018-04-13T01:24:55.219Z,92.2
2018-04-13T01:26:05.185Z,92.97
2018-04-13T01:27:15.147Z,92.68
2018-04-13T01:28:25.370Z,92.68
2018-04-13T01:29:35.350Z,92.68
2018-04-13T01:30:45.319Z,92.49
2018-04-13T01:31:55.284Z,92.77
2018-04-13T01:33:05.244Z,92.77
2018-04-13T01:34:15.211Z,92.68
2018-04-13T01:35:25.438Z,92.77
2018-04-13T01:36:35.401Z,92.63
2018-04-13T01:37:45.383Z,92.97
2018-04-13T01:38:55.348Z,91.91
2018-04-13T01:40:05.056Z,92.39
2018-04-13T01:41:14.759Z,92.01
2018-04-13T01:42:24.779Z,92.01
2018-04-13T01:43:34.741Z,92.3
2018-04-13T01:44:44.728Z,92.2
2018-04-13T01:45:54.193Z,92.3
2018-04-13T01:47:04.160Z,92.97
2018-04-13T01:48:14.115Z,92.1
2018-04-13T01:49:23.568Z,92.2
2018-04-13T01:50:33.561Z,92.01
2018-04-13T01:51:43.521Z,92.2
2018-04-13T01:52:53.486Z,91.91
2018-04-13T01:54:03.204Z,91.82
2018-04-13T01:55:13.179Z,91.82
2018-04-13T01:56:23.152Z,91.72
2018-04-13T01:57:33.118Z,91.82
2018-04-13T01:58:42.830Z,91.53
2018-04-13T01:59:52.529Z,91.63
2018-04-13T02:01:02.503Z,91.72
2018-04-13T02:02:12.473Z,91.82
2018-04-13T02:03:22.449Z,91.82
2018-04-13T02:04:32.421Z,91.82
2018-04-13T02:05:42.394Z,92.01
2018-04-13T02:06:52.101Z,92.3
2018-04-13T02:08:02.068Z,92.1
2018-04-13T02:09:12.042Z,91.82
2018-04-13T02:10:21.738Z,91.72
2018-04-13T02:11:31.443Z,92.01
2018-04-13T02:12:41.434Z,91.91
2018-04-13T02:13:51.409Z,91.82
2018-04-13T02:15:01.121Z,91.91
2018-04-13T02:16:10.829Z,91.58
2018-04-13T02:17:20.550Z,91.63
2018-04-13T02:18:30.509Z,91.72
2018-04-13T02:19:40.478Z,91.58
2018-04-13T02:20:50.445Z,91.82
2018-04-13T02:22:00.455Z,91.77
2018-04-13T02:23:10.426Z,91.58
2018-04-13T02:24:20.394Z,91.58
2018-04-13T02:25:30.362Z,91.49
2018-04-13T02:26:39.813Z,91.77
2018-04-13T02:27:49.804Z,92.06
2018-04-13T02:28:59.518Z,91.86
2018-04-13T02:30:09.493Z,91.58
2018-04-13T02:31:19.207Z,91.67
2018-04-13T02:32:29.322Z,91.86
2018-04-13T02:33:39.313Z,91.77
2018-04-13T02:34:49.316Z,91.77
2018-04-13T02:35:59.316Z,91.67
2018-04-13T02:37:09.037Z,92.06
2018-04-13T02:38:19.004Z,91.86
2018-04-13T02:39:28.987Z,91.96
2018-04-13T02:40:38.949Z,91.58
2018-04-13T02:41:48.922Z,91.86
2018-04-13T02:42:58.896Z,91.77
2018-04-13T02:44:08.859Z,91.49
2018-04-13T02:45:18.337Z,91.86
2018-04-13T02:46:28.313Z,91.77
2018-04-13T02:47:38.278Z,91.67
2018-04-13T02:48:47.993Z,91.77
2018-04-13T02:49:57.967Z,91.58
2018-04-13T02:51:07.946Z,91.67
2018-04-13T02:52:17.920Z,91.49
2018-04-13T02:53:27.906Z,91.86
2018-04-13T02:54:37.892Z,91.67
2018-04-13T02:55:47.876Z,91.67
2018-04-13T02:56:57.856Z,91.77
2018-04-13T02:58:07.559Z,91.82
2018-04-13T02:59:17.543Z,91.77
2018-04-13T03:00:27.273Z,91.96
2018-04-13T03:01:36.977Z,91.82
2018-04-13T03:02:46.974Z,91.77
2018-04-13T03:03:56.685Z,91.86
2018-04-13T03:05:06.668Z,91.96
2018-04-13T03:06:16.660Z,91.86
2018-04-13T03:07:26.633Z,91.96
2018-04-13T03:08:36.508Z,91.96
2018-04-13T03:09:46.477Z,91.96
2018-04-13T03:10:56.452Z,91.86
2018-04-13T03:12:06.176Z,91.67
2018-04-13T03:13:15.873Z,91.77
2018-04-13T03:14:25.845Z,91.77
2018-04-13T03:15:35.814Z,91.58
2018-04-13T03:16:45.774Z,91.58
2018-04-13T03:17:55.744Z,91.58
2018-04-13T03:19:05.732Z,91.77
2018-04-13T03:20:15.709Z,91.86
2018-04-13T03:21:25.679Z,91.58
2018-04-13T03:22:35.648Z,91.58
2018-04-13T03:23:45.368Z,91.67
2018-04-13T03:24:55.078Z,91.58
2018-04-13T03:26:05.044Z,92.63
2018-04-13T03:27:14.493Z,91.86
2018-04-13T03:28:24.198Z,91.58
2018-04-13T03:29:33.393Z,91.49
2018-04-13T03:30:42.848Z,91.58
2018-04-13T03:31:52.307Z,92.06
2018-04-13T03:33:01.760Z,91.39
2018-04-13T03:34:11.728Z,91.67
2018-04-13T03:35:21.684Z,91.86
2018-04-13T03:36:30.876Z,91.67
2018-04-13T03:37:40.585Z,91.77
2018-04-13T03:38:50.293Z,91.77
2018-04-13T03:40:00.252Z,91.49
2018-04-13T03:41:10.220Z,91.77
2018-04-13T03:42:20.185Z,91.77
2018-04-13T03:43:30.167Z,91.63
2018-04-13T03:44:39.876Z,91.05
2018-04-13T03:45:49.851Z,90.81
2018-04-13T03:46:59.827Z,90.95
2018-04-13T03:48:09.859Z,91.24
2018-04-13T03:49:19.833Z,91.24
2018-04-13T03:50:29.828Z,90.86
2018-04-13T03:51:39.805Z,90.76
2018-04-13T03:52:49.770Z,91.14
2018-04-13T03:53:59.482Z,90.86
2018-04-13T03:55:09.444Z,90.95
2018-04-13T03:56:19.153Z,90.95
2018-04-13T03:57:29.120Z,90.95
2018-04-13T03:58:39.087Z,91.05
2018-04-13T03:59:48.817Z,90.95
2018-04-13T04:00:58.786Z,90.76
2018-04-13T04:02:08.786Z,91.43
2018-04-13T04:03:18.644Z,90.76
2018-04-13T04:04:28.607Z,90.86
2018-04-13T04:05:38.574Z,90.76
2018-04-13T04:06:48.558Z,91.34
2018-04-13T04:07:58.271Z,91.14
2018-04-13T04:09:07.726Z,91.05
2018-04-13T04:10:17.445Z,90.86
2018-04-13T04:11:27.166Z,91.05
2018-04-13T04:12:37.139Z,91.14
2018-04-13T04:13:46.599Z,91.14
2018-04-13T04:14:56.057Z,91.24
2018-04-13T04:16:06.062Z,90.95
2018-04-13T04:17:15.780Z,90.76
2018-04-13T04:18:25.501Z,91.34
2018-04-13T04:19:35.227Z,90.67
2018-04-13T04:20:45.182Z,90.76
2018-04-13T04:21:54.887Z,90.86
2018-04-13T04:23:04.859Z,91.43
2018-04-13T04:24:14.967Z,90.86
2018-04-13T04:25:24.956Z,90.86
2018-04-13T04:26:34.428Z,91.05
2018-04-13T04:27:44.411Z,91.05
2018-04-13T04:28:54.140Z,91.34
2018-04-13T04:30:04.127Z,91.34
2018-04-13T04:31:14.098Z,92.01
2018-04-13T04:32:24.069Z,91.82
2018-04-13T04:33:34.095Z,91.82
2018-04-13T04:34:44.080Z,91.43
2018-04-13T04:35:54.078Z,91.82
2018-04-13T04:37:04.056Z,91.91
2018-04-13T04:38:13.765Z,91.91
2018-04-13T04:39:23.742Z,92.01
2018-04-13T04:40:33.708Z,91.91
2018-04-13T04:41:43.408Z,91.72
2018-04-13T04:42:53.373Z,92.01
2018-04-13T04:44:03.103Z,91.63
2018-04-13T04:45:13.072Z,92.01
2018-04-13T04:46:22.523Z,91.91
2018-04-13T04:47:32.244Z,92.1
2018-04-13T04:48:42.218Z,91.91
2018-04-13T04:49:51.930Z,91.63
2018-04-13T04:51:01.908Z,91.82
2018-04-13T04:52:11.878Z,91.82
2018-04-13T04:53:21.612Z,92.1
2018-04-13T04:54:31.596Z,91.63
2018-04-13T04:55:41.554Z,92.1
2018-04-13T04:56:51.522Z,92.01
2018-04-13T04:58:01.499Z,92.1
2018-04-13T04:59:11.236Z,92.2
2018-04-13T05:00:21.206Z,92.77
2018-04-13T05:01:30.907Z,91.72
2018-04-13T05:02:40.886Z,92.3
2018-04-13T05:03:50.594Z,91.72
2018-04-13T05:05:00.559Z,92.1
2018-04-13T05:06:10.274Z,91.91
2018-04-13T05:07:19.998Z,91.91
2018-04-13T05:08:29.706Z,91.82
2018-04-13T05:09:39.688Z,91.82
2018-04-13T05:10:49.654Z,91.82
2018-04-13T05:11:59.629Z,91.63
2018-04-13T05:13:09.724Z,91.82
2018-04-13T05:14:19.701Z,91.82
2018-04-13T05:15:29.680Z,91.91
2018-04-13T05:16:39.653Z,91.63
2018-04-13T05:17:49.120Z,92.1
2018-04-13T05:18:59.087Z,91.63
2018-04-13T05:20:09.202Z,91.63
2018-04-13T05:21:18.926Z,91.91
2018-04-13T05:22:28.654Z,91.82
2018-04-13T05:23:38.863Z,91.72
2018-04-13T05:24:48.838Z,91.91
2018-04-13T05:25:58.551Z,91.82
2018-04-13T05:27:08.282Z,92.01
2018-04-13T05:28:18.004Z,91.82
2018-04-13T05:29:28.016Z,92.1
2018-04-13T05:30:37.734Z,91.82
2018-04-13T05:31:47.706Z,91.72
2018-04-13T05:32:57.699Z,92.1
2018-04-13T05:34:07.683Z,91.82
2018-04-13T05:35:17.833Z,91.72
2018-04-13T05:36:27.834Z,91.91
2018-04-13T05:37:37.813Z,91.82
2018-04-13T05:38:47.599Z,91.53
2018-04-13T05:39:57.577Z,91.72
2018-04-13T05:41:07.561Z,91.82
2018-04-13T05:42:17.028Z,90.76
2018-04-13T05:43:26.738Z,91.43
2018-04-13T05:44:36.719Z,90.67
2018-04-13T05:45:46.689Z,90.76
2018-04-13T05:46:56.400Z,90.76
2018-04-13T05:48:06.389Z,90.76
2018-04-13T05:49:16.375Z,91.24
2018-04-13T05:50:26.393Z,91.38
2018-04-13T05:51:36.113Z,91.28
2018-04-13T05:52:46.112Z,90.9
2018-04-13T05:53:56.113Z,91
2018-04-13T05:55:06.061Z,91
2018-04-13T05:56:16.044Z,91.28
2018-04-13T05:57:26.006Z,91
2018-04-13T05:58:35.743Z,91.77
2018-04-13T05:59:45.725Z,91.48
2018-04-13T06:00:55.692Z,90.81
2018-04-13T06:02:05.716Z,90.81
2018-04-13T06:03:15.694Z,91
2018-04-13T06:04:25.658Z,91.86
2018-04-13T06:05:35.638Z,91.57
2018-04-13T06:06:45.652Z,91.77
2018-04-13T06:07:55.384Z,91.96
2018-04-13T06:09:05.229Z,91.86
2018-04-13T06:10:14.758Z,91.77
2018-04-13T06:11:24.212Z,91.96
2018-04-13T06:12:33.686Z,91.86
2018-04-13T06:13:43.666Z,91.57
2018-04-13T06:14:53.127Z,91.48
2018-04-13T06:16:02.845Z,91
2018-04-13T06:17:12.825Z,91
2018-04-13T06:18:22.820Z,91.48
2018-04-13T06:19:32.532Z,91.77
2018-04-13T06:20:42.529Z,91.57
2018-04-13T06:21:52.519Z,91.67
2018-04-13T06:23:02.011Z,91.96
2018-04-13T06:24:11.783Z,91.86
2018-04-13T06:25:22.051Z,91.67
2018-04-13T06:26:32.049Z,91.96
2018-04-13T06:27:42.029Z,92.91
2018-04-13T06:28:52.005Z,93.4
2018-04-13T06:30:01.969Z,93.11
2018-04-13T06:31:11.955Z,94.31
2018-04-13T06:32:21.675Z,94.79
2018-04-13T06:33:31.405Z,96.61
2018-04-13T06:34:41.381Z,96.42
2018-04-13T06:35:51.364Z,97.95
2018-04-13T06:37:01.331Z,98.81
2018-04-13T06:38:11.310Z,99.99
2018-04-13T06:39:21.050Z,99.99
2018-04-13T06:40:31.060Z,99.99
2018-04-13T06:41:40.776Z,99.99
2018-04-13T06:42:50.502Z,99.99
2018-04-13T06:44:00.509Z,99.99
2018-04-13T06:45:10.493Z,99.99
2018-04-13T06:46:19.955Z,99.99
2018-04-13T06:47:29.419Z,99.99
2018-04-13T06:48:39.438Z,99.99
2018-04-13T06:49:49.585Z,99.99
2018-04-13T06:50:59.574Z,99.99
2018-04-13T06:52:09.400Z,99.99
2018-04-13T06:53:19.393Z,99.99
2018-04-13T06:54:29.375Z,99.99
2018-04-13T06:55:39.374Z,99.99
2018-04-13T06:56:49.101Z,99.99
2018-04-13T06:57:59.092Z,99.99
2018-04-13T06:59:09.068Z,99.99
2018-04-13T07:00:19.051Z,99.99
2018-04-13T07:01:28.769Z,99.99
2018-04-13T07:02:38.752Z,99.99
2018-04-13T07:03:48.483Z,99.99
2018-04-13T07:04:57.954Z,99.99
2018-04-13T07:06:07.936Z,99.99
2018-04-13T07:07:17.925Z,99.99
2018-04-13T07:08:28.017Z,99.99
2018-04-13T07:09:38.016Z,99.99
2018-04-13T07:10:47.730Z,99.99
2018-04-13T07:11:57.700Z,99.99
2018-04-13T07:13:07.687Z,99.99
2018-04-13T07:14:17.678Z,99.99
2018-04-13T07:15:27.456Z,99.99
2018-04-13T07:16:36.699Z,99.99
2018-04-13T07:17:46.409Z,99.99
2018-04-13T07:18:55.885Z,99.99
2018-04-13T07:20:06.128Z,99.99
2018-04-13T07:21:15.860Z,99.99
2018-04-13T07:22:25.589Z,99.99
2018-04-13T07:23:35.307Z,99.99
2018-04-13T07:24:45.025Z,99.99
2018-04-13T07:25:55.045Z,99.99
2018-04-13T07:27:05.007Z,99.99
2018-04-13T07:28:14.713Z,99.99
2018-04-13T07:29:24.706Z,99.99
2018-04-13T07:30:34.690Z,99.99
2018-04-13T07:31:44.961Z,99.99
2018-04-13T07:32:56.056Z,99.99
2018-04-13T07:34:06.623Z,99.99
2018-04-13T07:35:16.340Z,99.99
2018-04-13T07:36:26.706Z,99.99
2018-04-13T07:37:36.670Z,99.99
2018-04-13T07:38:46.662Z,99.99
2018-04-13T07:39:56.632Z,99.99
2018-04-13T07:41:07.743Z,99.99
2018-04-13T07:42:17.557Z,99.99
2018-04-13T07:43:27.528Z,99.99
2018-04-13T07:44:37.519Z,99.99
2018-04-13T07:45:46.990Z,99.99
2018-04-13T07:46:57.672Z,99.99
2018-04-13T07:48:07.728Z,99.99
2018-04-13T07:49:17.447Z,99.99
2018-04-13T07:50:27.989Z,99.99
2018-04-13T07:51:38.400Z,99.99
2018-04-13T07:52:49.335Z,99.99
2018-04-13T07:53:59.335Z,99.99
2018-04-13T07:55:09.310Z,99.99
2018-04-13T07:56:19.015Z,99.99
2018-04-13T07:57:28.999Z,99.99
2018-04-13T07:58:38.987Z,99.99
2018-04-13T07:59:48.715Z,99.99
2018-04-13T08:00:59.351Z,99.99
2018-04-13T08:02:10.085Z,99.99
2018-04-13T08:03:20.080Z,99.99
2018-04-13T08:04:30.093Z,99.99
2018-04-13T08:05:40.085Z,99.99
2018-04-13T08:06:50.154Z,99.99
2018-04-13T08:08:00.402Z,99.99
2018-04-13T08:09:10.647Z,99.99
2018-04-13T08:10:20.829Z,99.99
2018-04-13T08:11:30.849Z,99.99
2018-04-13T08:12:41.221Z,99.99
2018-04-13T08:13:51.220Z,99.99
2018-04-13T08:15:01.272Z,99.99
2018-04-13T08:16:11.554Z,99.99
2018-04-13T08:17:21.277Z,99.99
2018-04-13T08:18:31.269Z,99.99
2018-04-13T08:19:41.270Z,99.99
2018-04-13T08:20:51.045Z,99.99
2018-04-13T08:22:00.796Z,99.99
2018-04-13T08:23:10.765Z,99.99
2018-04-13T08:24:20.574Z,99.99
2018-04-13T08:25:30.052Z,99.99
2018-04-13T08:26:40.067Z,99.99
2018-04-13T08:27:50.052Z,99.99
2018-04-13T08:29:00.129Z,99.99
2018-04-13T08:30:10.142Z,99.99
2018-04-13T08:31:20.230Z,99.99
2018-04-13T08:32:29.983Z,99.99
2018-04-13T08:33:39.780Z,99.99
2018-04-13T08:34:49.850Z,99.99
2018-04-13T08:35:59.886Z,99.99
2018-04-13T08:37:09.899Z,99.99
2018-04-13T08:38:19.884Z,99.99
2018-04-13T08:39:29.867Z,99.99
2018-04-13T08:40:40.009Z,99.99
2018-04-13T08:41:50.014Z,99.99
2018-04-13T08:43:03.439Z,99.99
